Time;durP1;ratioP1;P1;durP2;ratioP2;P2;SDS_P1;SDS_P2;PMS_P1;PMS_P2;Temp;Humidity;BMP_temperature;BMP_pressure;BME280_temperature;BME280_humidity;BME280_pressure;Samples;Min_cycle;Max_cycle;Signal;HPM_P1;HPM_P2
2021/10/26 00:00:19;;;;;;;7.03;4.68;;;10.00;99.90;;;;;;5053226;28;20254;-73
2021/10/26 00:02:46;;;;;;;6.43;4.55;;;10.00;99.90;;;;;;5052954;28;20625;-72
2021/10/26 00:05:13;;;;;;;5.13;4.22;;;10.10;99.90;;;;;;5053189;28;20199;-73
2021/10/26 00:07:40;;;;;;;6.28;4.63;;;10.10;99.90;;;;;;5053560;28;20206;-73
2021/10/26 00:10:09;;;;;;;6.30;4.80;;;10.20;99.90;;;;;;5053112;28;20588;-73
2021/10/26 00:12:37;;;;;;;6.78;4.70;;;10.10;99.90;;;;;;5053215;28;20294;-73
2021/10/26 00:15:05;;;;;;;7.47;4.63;;;9.90;99.90;;;;;;5052117;28;20204;-73
2021/10/26 00:17:32;;;;;;;8.00;5.20;;;9.80;99.90;;;;;;5052671;28;20286;-73
2021/10/26 00:19:59;;;;;;;8.27;5.43;;;9.80;99.90;;;;;;5052400;28;20215;-73
2021/10/26 00:22:26;;;;;;;6.25;4.50;;;9.80;99.90;;;;;;5056947;28;20284;-72
2021/10/26 00:24:53;;;;;;;6.80;4.68;;;9.90;99.90;;;;;;5057655;28;20210;-75
2021/10/26 00:27:19;;;;;;;7.13;5.40;;;10.00;99.90;;;;;;5058110;28;20290;-74
2021/10/26 00:29:48;;;;;;;5.38;4.40;;;10.00;99.90;;;;;;5057276;28;20719;-74
2021/10/26 00:32:15;;;;;;;5.47;4.63;;;10.20;99.90;;;;;;5057834;28;20222;-74
2021/10/26 00:34:43;;;;;;;5.97;4.72;;;10.30;99.90;;;;;;5057252;28;20294;-74
2021/10/26 00:37:10;;;;;;;6.47;4.60;;;10.30;99.90;;;;;;5058178;28;20215;-75
2021/10/26 00:39:37;;;;;;;6.95;4.85;;;10.40;99.90;;;;;;5057703;28;20220;-73
2021/10/26 00:42:04;;;;;;;7.55;4.97;;;10.30;99.90;;;;;;5056345;28;20238;-72
2021/10/26 00:44:32;;;;;;;6.93;4.60;;;10.20;99.90;;;;;;5055892;28;20295;-73
2021/10/26 00:47:01;;;;;;;6.95;4.65;;;10.20;99.90;;;;;;5056955;28;20721;-74
2021/10/26 00:49:28;;;;;;;5.90;4.65;;;10.30;99.90;;;;;;5057294;28;20611;-74
2021/10/26 00:51:56;;;;;;;5.95;4.60;;;10.40;99.90;;;;;;5056739;28;20206;-73
2021/10/26 00:54:25;;;;;;;6.68;4.63;;;10.30;99.90;;;;;;5056917;28;20257;-73
2021/10/26 00:56:52;;;;;;;8.93;5.57;;;10.40;99.90;;;;;;5056418;28;20585;-73
2021/10/26 00:59:19;;;;;;;9.20;6.15;;;10.40;99.90;;;;;;5056523;28;20195;-72
2021/10/26 01:01:49;;;;;;;7.55;4.72;;;10.40;99.90;;;;;;5057542;28;20543;-73
2021/10/26 01:04:17;;;;;;;6.32;4.90;;;10.30;99.90;;;;;;5056167;28;20588;-74
2021/10/26 01:06:44;;;;;;;7.38;5.60;;;10.30;99.90;;;;;;5055934;28;20673;-76
2021/10/26 01:09:11;;;;;;;7.70;5.78;;;10.30;99.90;;;;;;5057109;28;20219;-73
2021/10/26 01:11:39;;;;;;;7.38;5.57;;;10.30;99.90;;;;;;5056096;28;20200;-73
2021/10/26 01:14:06;;;;;;;8.38;6.70;;;10.30;99.90;;;;;;5055892;28;20217;-72
2021/10/26 01:16:33;;;;;;;7.50;5.28;;;10.20;99.90;;;;;;5056699;28;20254;-73
2021/10/26 01:19:00;;;;;;;7.43;5.15;;;10.10;99.90;;;;;;5056601;28;20298;-74
2021/10/26 01:21:29;;;;;;;7.07;5.47;;;10.20;99.90;;;;;;5055782;28;20756;-73
2021/10/26 01:23:56;;;;;;;8.18;5.63;;;10.30;99.90;;;;;;5056811;28;20705;-73
2021/10/26 01:26:23;;;;;;;7.80;5.53;;;10.40;99.90;;;;;;5056315;28;20210;-73
2021/10/26 01:28:50;;;;;;;8.00;5.60;;;10.50;99.90;;;;;;5054905;28;20199;-72
2021/10/26 01:31:17;;;;;;;9.65;5.57;;;10.60;99.90;;;;;;5054136;28;20701;-72
2021/10/26 01:33:44;;;;;;;7.63;5.63;;;10.60;99.90;;;;;;5054047;28;20245;-72
2021/10/26 01:36:11;;;;;;;7.35;5.10;;;10.60;99.90;;;;;;5054796;28;20203;-73
2021/10/26 01:38:39;;;;;;;8.20;5.78;;;10.60;99.90;;;;;;5054752;28;20206;-73
2021/10/26 01:41:06;;;;;;;9.45;5.40;;;10.50;99.90;;;;;;5054364;28;20242;-71
2021/10/26 01:43:33;;;;;;;7.43;5.18;;;10.40;99.90;;;;;;5054290;28;20573;-74
2021/10/26 01:46:00;;;;;;;8.55;6.35;;;10.30;99.90;;;;;;5054125;28;20234;-76
2021/10/26 01:48:27;;;;;;;7.60;5.97;;;10.40;99.90;;;;;;5053888;28;20310;-76
2021/10/26 01:50:57;;;;;;;6.75;6.05;;;10.40;99.90;;;;;;5054270;28;20230;-75
2021/10/26 01:53:24;;;;;;;7.20;5.35;;;10.30;99.90;;;;;;5054006;28;20207;-75
2021/10/26 01:55:52;;;;;;;7.25;5.65;;;10.40;99.90;;;;;;5055584;28;20229;-73
2021/10/26 01:58:19;;;;;;;8.13;5.47;;;10.50;99.90;;;;;;5055374;28;20595;-73
2021/10/26 02:00:46;;;;;;;7.07;5.53;;;10.70;99.90;;;;;;5055243;28;20588;-74
2021/10/26 02:03:13;;;;;;;8.10;6.30;;;10.70;99.90;;;;;;5055127;28;20243;-73
2021/10/26 02:05:40;;;;;;;7.70;6.40;;;10.80;99.90;;;;;;5054926;28;20207;-74
2021/10/26 02:08:07;;;;;;;7.22;5.75;;;10.90;99.90;;;;;;5055173;28;20610;-73
2021/10/26 02:10:34;;;;;;;9.15;6.78;;;10.80;99.90;;;;;;5055009;28;20314;-73
2021/10/26 02:13:02;;;;;;;11.50;6.22;;;10.70;99.90;;;;;;5054909;28;20204;-73
2021/10/26 02:15:29;;;;;;;7.55;5.95;;;10.50;99.90;;;;;;5054972;28;20241;-74
2021/10/26 02:17:56;;;;;;;9.98;7.55;;;10.30;99.90;;;;;;5054861;28;20229;-73
2021/10/26 02:20:23;;;;;;;9.35;6.70;;;10.20;99.90;;;;;;5055092;28;20221;-73
2021/10/26 02:22:50;;;;;;;9.35;6.90;;;10.10;99.90;;;;;;5054719;28;20210;-73
2021/10/26 02:25:17;;;;;;;8.32;6.80;;;10.10;99.90;;;;;;5054933;28;20602;-73
2021/10/26 02:27:44;;;;;;;8.43;6.57;;;10.10;99.90;;;;;;5055056;28;20207;-73
2021/10/26 02:30:13;;;;;;;9.23;6.88;;;10.10;99.90;;;;;;5054525;28;20337;-73
2021/10/26 02:32:40;;;;;;;9.65;7.05;;;10.30;99.90;;;;;;5054310;28;20703;-73
2021/10/26 02:35:07;;;;;;;9.93;7.25;;;10.40;99.90;;;;;;5054640;28;20214;-73
2021/10/26 02:37:35;;;;;;;7.88;5.60;;;10.60;99.90;;;;;;5054711;28;20200;-74
2021/10/26 02:40:01;;;;;;;10.45;6.10;;;10.70;99.90;;;;;;5054310;28;20298;-74
2021/10/26 02:42:28;;;;;;;11.32;6.53;;;10.70;99.90;;;;;;5054393;28;20235;-74
2021/10/26 02:44:55;;;;;;;8.32;6.25;;;10.70;99.90;;;;;;5054222;28;20203;-74
2021/10/26 02:47:23;;;;;;;8.77;6.75;;;10.80;99.90;;;;;;5054618;28;20235;-73
2021/10/26 02:49:50;;;;;;;10.38;6.53;;;10.80;99.90;;;;;;5053984;28;20733;-73
2021/10/26 02:52:17;;;;;;;7.90;6.80;;;10.60;99.90;;;;;;5054179;28;20210;-73
2021/10/26 02:54:44;;;;;;;8.68;6.35;;;10.50;99.90;;;;;;5054268;28;20249;-74
2021/10/26 02:57:11;;;;;;;10.75;6.50;;;10.40;99.90;;;;;;5054270;28;20298;-73
2021/10/26 02:59:37;;;;;;;9.15;6.53;;;10.40;99.90;;;;;;5054110;28;20318;-74
2021/10/26 03:02:05;;;;;;;9.38;6.55;;;10.50;99.90;;;;;;5053791;28;20207;-74
2021/10/26 03:04:33;;;;;;;12.23;7.75;;;10.50;99.90;;;;;;5053911;28;20210;-73
2021/10/26 03:07:00;;;;;;;10.07;7.82;;;10.40;99.90;;;;;;5053902;28;20299;-73
2021/10/26 03:09:27;;;;;;;8.68;6.50;;;10.40;99.90;;;;;;5053740;28;20725;-74
2021/10/26 03:11:54;;;;;;;8.55;7.15;;;10.40;99.90;;;;;;5053884;28;20289;-73
2021/10/26 03:14:20;;;;;;;10.57;7.60;;;10.60;99.90;;;;;;5053887;28;20776;-74
2021/10/26 03:16:47;;;;;;;14.25;8.23;;;10.60;99.90;;;;;;5053810;28;20295;-73
2021/10/26 03:19:14;;;;;;;10.80;7.15;;;10.70;99.90;;;;;;5053829;28;20622;-73
2021/10/26 03:21:42;;;;;;;8.23;6.63;;;10.60;99.90;;;;;;5053733;28;20200;-73
2021/10/26 03:24:10;;;;;;;10.75;7.40;;;10.40;99.90;;;;;;5053709;28;20302;-74
2021/10/26 03:26:37;;;;;;;10.55;7.20;;;10.40;99.90;;;;;;5053728;28;20207;-73
2021/10/26 03:29:04;;;;;;;10.88;8.02;;;10.40;99.90;;;;;;5053979;28;20290;-73
2021/10/26 03:31:31;;;;;;;11.82;8.23;;;10.30;99.90;;;;;;5053417;28;20231;-73
2021/10/26 03:33:57;;;;;;;11.30;7.57;;;10.20;99.90;;;;;;5053728;28;20203;-73
2021/10/26 03:36:24;;;;;;;9.95;7.90;;;10.20;99.90;;;;;;5053818;28;20214;-73
2021/10/26 03:38:52;;;;;;;14.80;7.35;;;10.30;99.90;;;;;;5053602;28;20231;-73
2021/10/26 03:41:19;;;;;;;10.57;7.53;;;10.40;99.90;;;;;;5053042;28;20306;-73
2021/10/26 03:43:46;;;;;;;8.38;7.15;;;10.40;99.90;;;;;;5053519;28;20290;-73
2021/10/26 03:46:14;;;;;;;8.35;6.68;;;10.30;99.90;;;;;;5053494;28;20203;-73
2021/10/26 03:48:42;;;;;;;8.45;6.75;;;10.20;99.90;;;;;;5053520;28;20577;-73
2021/10/26 03:51:08;;;;;;;10.05;8.35;;;10.20;99.90;;;;;;5053261;28;20281;-73
2021/10/26 03:53:35;;;;;;;11.07;8.27;;;10.30;99.90;;;;;;5053346;28;20295;-73
2021/10/26 03:56:04;;;;;;;11.25;8.27;;;10.20;99.90;;;;;;5057609;28;20199;-73
2021/10/26 03:58:32;;;;;;;11.80;8.63;;;10.20;99.90;;;;;;5060061;28;20203;-73
2021/10/26 04:00:59;;;;;;;13.93;8.45;;;10.30;99.90;;;;;;5060139;28;20227;-73
2021/10/26 04:03:26;;;;;;;9.45;7.70;;;10.30;99.90;;;;;;5059997;28;20272;-73
2021/10/26 04:06:00;;;;;;;13.88;8.13;;;10.30;99.90;;;;;;5060000;28;20203;-73
2021/10/26 04:08:30;;;;;;;12.40;8.02;;;10.30;99.90;;;;;;5059878;28;20217;-74
2021/10/26 04:10:59;;;;;;;12.95;8.18;;;10.30;99.90;;;;;;5059807;28;20234;-74
2021/10/26 04:13:27;;;;;;;11.15;8.98;;;10.40;99.90;;;;;;5059924;28;20534;-73
2021/10/26 04:15:55;;;;;;;13.35;9.40;;;10.50;99.90;;;;;;5059911;28;20310;-73
2021/10/26 04:18:22;;;;;;;10.07;7.75;;;10.40;99.90;;;;;;5059872;28;20203;-73
2021/10/26 04:20:49;;;;;;;13.18;9.48;;;10.40;99.90;;;;;;5059596;28;20720;-73
2021/10/26 04:23:16;;;;;;;12.02;8.82;;;10.30;99.90;;;;;;5059540;28;20303;-73
2021/10/26 04:25:43;;;;;;;13.25;9.40;;;10.30;99.90;;;;;;5059870;28;20210;-73
2021/10/26 04:28:09;;;;;;;10.65;8.90;;;10.30;99.90;;;;;;5059801;28;20203;-73
2021/10/26 04:30:38;;;;;;;11.68;8.27;;;10.40;99.90;;;;;;5059613;28;20330;-73
2021/10/26 04:33:06;;;;;;;11.90;8.48;;;10.50;99.90;;;;;;5059602;28;20298;-73
2021/10/26 04:35:33;;;;;;;13.27;8.75;;;10.50;99.90;;;;;;5059977;28;20290;-73
2021/10/26 04:38:00;;;;;;;11.40;9.32;;;10.40;99.90;;;;;;5059910;28;20207;-73
2021/10/26 04:40:27;;;;;;;12.32;8.70;;;10.30;99.90;;;;;;5059848;28;20305;-73
2021/10/26 04:42:54;;;;;;;12.40;8.35;;;10.20;99.90;;;;;;5059569;28;20213;-73
2021/10/26 04:45:22;;;;;;;11.32;9.13;;;10.10;99.90;;;;;;5059912;28;20628;-73
2021/10/26 04:47:51;;;;;;;13.25;8.63;;;10.20;99.90;;;;;;5059595;28;20200;-73
2021/10/26 04:50:19;;;;;;;12.85;7.80;;;10.20;99.90;;;;;;5059560;28;20593;-73
2021/10/26 04:52:46;;;;;;;11.43;9.38;;;10.30;99.90;;;;;;5059225;28;20214;-73
2021/10/26 04:55:13;;;;;;;11.20;8.68;;;10.40;99.90;;;;;;5059465;28;20679;-73
2021/10/26 04:57:41;;;;;;;11.45;8.60;;;10.30;99.90;;;;;;5059537;28;20206;-73
2021/10/26 05:00:10;;;;;;;11.57;8.50;;;10.20;99.90;;;;;;5059269;28;20780;-74
2021/10/26 05:02:37;;;;;;;12.52;8.73;;;10.20;99.90;;;;;;5059339;28;20261;-73
2021/10/26 05:05:07;;;;;;;11.48;8.70;;;10.00;99.90;;;;;;5059593;28;20206;-74
2021/10/26 05:07:34;;;;;;;11.13;8.32;;;10.00;99.90;;;;;;5057177;28;20211;-73
2021/10/26 05:10:01;;;;;;;12.55;9.30;;;10.10;99.90;;;;;;5056121;28;20255;-74
2021/10/26 05:12:28;;;;;;;13.23;9.20;;;10.20;99.90;;;;;;5056043;28;20310;-73
2021/10/26 05:14:55;;;;;;;13.80;9.40;;;10.30;99.90;;;;;;5056065;28;20294;-73
2021/10/26 05:17:23;;;;;;;12.23;9.00;;;10.30;99.90;;;;;;5056163;28;20207;-74
2021/10/26 05:19:52;;;;;;;11.02;8.60;;;10.50;99.90;;;;;;5056037;28;20227;-74
2021/10/26 05:22:23;;;;;;;12.68;8.80;;;10.50;99.90;;;;;;5055723;28;20207;-73
2021/10/26 05:24:50;;;;;;;10.30;8.45;;;10.30;99.90;;;;;;5055793;28;20305;-74
2021/10/26 05:27:19;;;;;;;10.75;8.00;;;10.10;99.90;;;;;;5055873;28;20246;-74
2021/10/26 05:29:46;;;;;;;12.95;9.90;;;10.00;99.90;;;;;;5055826;28;20643;-74
2021/10/26 05:32:13;;;;;;;12.00;8.88;;;9.90;99.90;;;;;;5055434;28;20227;-73
2021/10/26 05:34:40;;;;;;;10.77;8.30;;;9.70;99.90;;;;;;5055846;28;20234;-74
2021/10/26 05:37:10;;;;;;;12.23;8.18;;;9.70;99.90;;;;;;5055769;28;20307;-73
2021/10/26 05:39:39;;;;;;;12.98;9.07;;;9.60;99.90;;;;;;5055695;28;20224;-73
2021/10/26 05:42:06;;;;;;;13.82;9.07;;;9.80;99.90;;;;;;5055537;28;20565;-73
2021/10/26 05:44:34;;;;;;;9.98;7.57;;;9.90;99.90;;;;;;5055886;28;20214;-73
2021/10/26 05:47:01;;;;;;;9.70;8.00;;;10.10;99.90;;;;;;5055480;28;20570;-74
2021/10/26 05:49:28;;;;;;;12.48;8.25;;;10.20;99.90;;;;;;5055499;28;20294;-74
2021/10/26 05:51:55;;;;;;;10.88;9.32;;;10.40;99.90;;;;;;5055356;28;20223;-73
2021/10/26 05:54:22;;;;;;;12.65;8.65;;;10.40;99.90;;;;;;5055185;28;20294;-74
2021/10/26 05:56:50;;;;;;;11.82;8.52;;;10.30;99.90;;;;;;5055318;28;20290;-74
2021/10/26 05:59:17;;;;;;;12.85;8.25;;;10.20;99.90;;;;;;5055280;28;20218;-74
2021/10/26 06:01:43;;;;;;;13.25;9.15;;;10.20;99.90;;;;;;5055226;28;20199;-73
2021/10/26 06:04:10;;;;;;;13.48;9.15;;;10.20;99.90;;;;;;5055139;28;20658;-74
2021/10/26 06:06:37;;;;;;;14.10;8.68;;;10.30;99.90;;;;;;5055241;28;20203;-74
2021/10/26 06:09:07;;;;;;;13.70;9.20;;;10.30;99.90;;;;;;5055119;28;20757;-74
2021/10/26 06:11:34;;;;;;;11.55;7.85;;;10.40;99.90;;;;;;5054624;28;20653;-74
2021/10/26 06:14:03;;;;;;;14.00;8.65;;;10.20;99.90;;;;;;5055092;28;20219;-74
2021/10/26 06:16:32;;;;;;;14.38;9.05;;;10.20;99.90;;;;;;5055279;28;20230;-74
2021/10/26 06:18:59;;;;;;;12.90;9.02;;;10.30;99.90;;;;;;5054466;28;20568;-74
2021/10/26 06:21:27;;;;;;;12.65;7.68;;;10.40;99.90;;;;;;5054797;28;20216;-73
2021/10/26 06:23:54;;;;;;;12.23;8.52;;;10.50;99.90;;;;;;5054522;28;20211;-73
2021/10/26 06:26:21;;;;;;;11.55;8.68;;;10.30;99.90;;;;;;5054881;28;20210;-73
2021/10/26 06:28:48;;;;;;;15.60;9.55;;;10.10;99.90;;;;;;5054728;28;20199;-73
2021/10/26 06:31:24;;;;;;;16.52;9.38;;;9.90;99.90;;;;;;5054576;28;20581;-73
2021/10/26 06:33:51;;;;;;;11.80;8.75;;;9.80;99.90;;;;;;5054664;28;20290;-74
2021/10/26 06:36:20;;;;;;;13.10;8.90;;;9.90;99.90;;;;;;5054366;28;20261;-74
2021/10/26 06:38:47;;;;;;;12.48;8.98;;;10.10;99.90;;;;;;5054399;28;20274;-74
2021/10/26 06:41:14;;;;;;;10.40;8.48;;;10.30;99.90;;;;;;5054652;28;20337;-73
2021/10/26 06:43:41;;;;;;;12.75;9.00;;;10.40;99.90;;;;;;5054517;28;20298;-74
2021/10/26 06:46:08;;;;;;;11.48;7.70;;;10.40;99.90;;;;;;5054161;28;20234;-74
2021/10/26 06:48:36;;;;;;;11.68;8.15;;;10.40;99.90;;;;;;5054195;28;20291;-74
2021/10/26 06:51:03;;;;;;;12.52;8.32;;;10.50;99.90;;;;;;5054081;28;20310;-74
2021/10/26 06:53:30;;;;;;;13.38;8.82;;;10.60;99.90;;;;;;5054121;28;20294;-73
2021/10/26 06:56:03;;;;;;;13.60;9.85;;;10.60;99.90;;;;;;5053967;28;20215;-74
2021/10/26 06:58:30;;;;;;;11.30;8.52;;;10.50;99.90;;;;;;5054168;28;20662;-74
2021/10/26 07:00:56;;;;;;;11.80;8.82;;;10.50;99.90;;;;;;5054111;28;20233;-73
2021/10/26 07:03:23;;;;;;;12.32;8.50;;;10.40;99.90;;;;;;5053890;28;20199;-74
2021/10/26 07:05:51;;;;;;;12.05;8.27;;;10.50;99.90;;;;;;5053875;28;20199;-74
2021/10/26 07:08:18;;;;;;;11.70;8.38;;;10.70;99.90;;;;;;5054017;28;20622;-74
2021/10/26 07:10:45;;;;;;;12.48;8.35;;;10.70;99.90;;;;;;5053925;28;20220;-74
2021/10/26 07:13:12;;;;;;;10.60;8.80;;;10.70;99.90;;;;;;5053825;28;20294;-73
2021/10/26 07:15:39;;;;;;;16.05;10.13;;;10.70;99.90;;;;;;5053862;28;20214;-74
2021/10/26 07:18:05;;;;;;;13.85;9.57;;;10.70;99.90;;;;;;5045350;28;20600;-73
2021/10/26 07:20:32;;;;;;;14.88;9.75;;;10.80;99.90;;;;;;5061557;28;20227;-74
2021/10/26 07:23:00;;;;;;;12.77;9.32;;;10.70;99.90;;;;;;5052443;28;20565;-76
2021/10/26 07:25:27;;;;;;;13.30;10.35;;;10.80;99.90;;;;;;5052762;28;20310;-77
2021/10/26 07:27:58;;;;;;;14.07;9.85;;;10.70;99.90;;;;;;5052595;28;20241;-77
2021/10/26 07:30:28;;;;;;;16.50;10.90;;;10.70;99.90;;;;;;5051278;28;20798;-76
2021/10/26 07:32:56;;;;;;;14.45;10.65;;;10.60;99.90;;;;;;5052054;28;20226;-76
2021/10/26 07:35:28;;;;;;;16.40;11.15;;;10.60;99.90;;;;;;5052559;28;20253;-76
2021/10/26 07:37:55;;;;;;;17.40;11.90;;;10.50;99.90;;;;;;5052486;28;20243;-76
2021/10/26 07:40:23;;;;;;;18.33;12.25;;;10.50;99.90;;;;;;5053516;28;20270;-73
2021/10/26 07:42:50;;;;;;;16.80;11.20;;;10.40;99.90;;;;;;5053487;28;20612;-73
2021/10/26 07:45:16;;;;;;;15.38;11.32;;;10.40;99.90;;;;;;5053619;28;20294;-73
2021/10/26 07:47:43;;;;;;;16.13;12.25;;;10.50;99.90;;;;;;5053696;28;20238;-73
2021/10/26 07:50:10;;;;;;;14.98;11.25;;;10.50;99.90;;;;;;5053717;28;20228;-73
2021/10/26 07:52:38;;;;;;;20.25;10.93;;;10.60;99.90;;;;;;5053611;28;20318;-73
2021/10/26 07:55:06;;;;;;;14.30;10.80;;;10.70;99.90;;;;;;5053995;28;20207;-72
2021/10/26 07:57:34;;;;;;;17.50;11.38;;;10.90;99.90;;;;;;5053937;28;20209;-73
2021/10/26 08:00:04;;;;;;;16.30;12.05;;;11.10;99.90;;;;;;5053821;28;20285;-73
2021/10/26 08:02:31;;;;;;;18.88;12.68;;;11.20;99.90;;;;;;5053349;28;20286;-73
2021/10/26 08:04:58;;;;;;;15.95;11.43;;;11.30;99.90;;;;;;5053694;28;20294;-73
2021/10/26 08:07:25;;;;;;;18.50;11.55;;;11.40;99.90;;;;;;5053617;28;20199;-73
2021/10/26 08:09:54;;;;;;;14.40;11.23;;;11.40;99.90;;;;;;5053667;28;20219;-73
2021/10/26 08:12:21;;;;;;;16.45;12.65;;;11.60;99.90;;;;;;5053628;28;20223;-73
2021/10/26 08:14:50;;;;;;;19.67;11.15;;;11.70;99.90;;;;;;5053565;28;20684;-73
2021/10/26 08:17:18;;;;;;;17.25;11.90;;;11.70;99.90;;;;;;5054667;28;20286;-73
2021/10/26 08:19:46;;;;;;;17.10;11.38;;;11.80;99.90;;;;;;5054849;28;20224;-73
2021/10/26 08:22:16;;;;;;;18.35;12.00;;;11.90;99.90;;;;;;5054200;28;20680;-73
2021/10/26 08:24:44;;;;;;;15.65;11.35;;;12.00;99.90;;;;;;5054585;28;20712;-73
2021/10/26 08:27:14;;;;;;;16.52;11.27;;;12.10;99.90;;;;;;5054553;28;20215;-73
2021/10/26 08:29:47;;;;;;;15.15;11.40;;;12.30;99.90;;;;;;5054566;28;20223;-73
2021/10/26 08:35:25;;;;;;;17.02;12.80;;;12.30;99.90;;;;;;5029859;28;20282;-73
2021/10/26 08:37:54;;;;;;;17.17;11.90;;;12.40;99.90;;;;;;5054382;28;20210;-73
2021/10/26 08:40:23;;;;;;;14.73;11.93;;;12.40;99.90;;;;;;5053956;28;20223;-73
2021/10/26 08:42:51;;;;;;;14.50;11.50;;;12.50;99.90;;;;;;5057524;28;20290;-73
2021/10/26 08:45:20;;;;;;;17.80;11.68;;;12.60;99.90;;;;;;5058637;28;20692;-73
2021/10/26 08:47:49;;;;;;;16.70;11.95;;;12.70;99.90;;;;;;5058923;28;20235;-73
2021/10/26 08:50:18;;;;;;;16.08;11.18;;;12.70;99.90;;;;;;5059056;28;20233;-73
2021/10/26 08:52:45;;;;;;;14.25;10.65;;;12.60;99.90;;;;;;5059053;28;20262;-73
2021/10/26 08:55:13;;;;;;;17.10;13.85;;;12.50;99.90;;;;;;5058723;28;20211;-73
2021/10/26 08:57:40;;;;;;;15.95;12.07;;;12.50;99.90;;;;;;5058806;28;20258;-73
2021/10/26 09:00:09;;;;;;;17.27;12.73;;;12.40;99.90;;;;;;5058720;28;20724;-73
2021/10/26 09:02:40;;;;;;;19.60;12.70;;;12.40;99.90;;;;;;5058727;28;20286;-73
2021/10/26 09:05:14;;;;;;;16.70;11.50;;;12.40;99.90;;;;;;5059244;28;20551;-73
2021/10/26 09:07:41;;;;;;;16.65;12.15;;;12.60;99.90;;;;;;5058862;28;20218;-73
2021/10/26 09:10:14;;;;;;;16.42;11.75;;;12.80;99.90;;;;;;5059389;28;20259;-73
2021/10/26 09:18:26;;;;;;;13.98;10.50;;;13.00;99.90;;;;;;5056468;28;20786;-73
2021/10/26 09:20:54;;;;;;;18.55;12.88;;;13.20;99.90;;;;;;5056372;28;20591;-73
2021/10/26 09:23:26;;;;;;;15.95;11.80;;;13.30;99.90;;;;;;5055860;28;20291;-74
2021/10/26 09:25:58;;;;;;;13.27;11.30;;;13.30;99.90;;;;;;5056512;28;20245;-73
2021/10/26 09:28:27;;;;;;;18.13;11.40;;;13.20;99.90;;;;;;5056578;28;20203;-73
2021/10/26 09:31:04;;;;;;;15.77;11.75;;;13.20;99.90;;;;;;5057067;28;20225;-73
2021/10/26 09:33:34;;;;;;;15.85;12.35;;;13.30;99.90;;;;;;5056401;28;20215;-73
2021/10/26 09:36:25;;;;;;;16.95;12.27;;;13.30;99.90;;;;;;5056449;28;20204;-73
2021/10/26 09:38:57;;;;;;;17.83;12.73;;;13.40;99.90;;;;;;5056663;28;20298;-73
2021/10/26 09:41:24;;;;;;;17.05;12.45;;;13.40;99.90;;;;;;5055933;28;20713;-73
2021/10/26 09:43:51;;;;;;;16.83;11.98;;;13.70;99.90;;;;;;5055975;28;20210;-73
2021/10/26 09:46:24;;;;;;;18.27;12.40;;;13.70;99.90;;;;;;5056066;28;20204;-73
2021/10/26 09:48:51;;;;;;;15.43;10.90;;;13.80;99.90;;;;;;5056240;28;20207;-73
2021/10/26 09:51:21;;;;;;;19.02;12.90;;;13.90;99.90;;;;;;5055726;28;20220;-73
2021/10/26 09:53:57;;;;;;;15.73;12.02;;;13.80;99.90;;;;;;5055571;28;20233;-74
2021/10/26 09:56:24;;;;;;;15.73;11.27;;;13.80;99.90;;;;;;5055990;28;20210;-73
2021/10/26 09:59:15;;;;;;;14.88;11.63;;;13.80;99.90;;;;;;5056207;28;20203;-74
2021/10/26 10:01:53;;;;;;;16.30;12.40;;;13.90;99.90;;;;;;5055932;28;20274;-73
2021/10/26 10:04:30;;;;;;;18.80;13.57;;;14.00;99.90;;;;;;5055535;28;20199;-73
2021/10/26 10:06:57;;;;;;;14.27;11.30;;;14.10;99.90;;;;;;5055492;28;20294;-74
2021/10/26 10:09:25;;;;;;;16.33;12.55;;;14.20;99.90;;;;;;5055502;28;20235;-73
2021/10/26 10:12:05;;;;;;;14.40;11.27;;;14.30;99.90;;;;;;5055461;28;20295;-73
2021/10/26 10:14:41;;;;;;;14.98;10.85;;;14.40;99.90;;;;;;5055544;28;20673;-73
2021/10/26 10:17:08;;;;;;;13.23;10.70;;;14.60;99.90;;;;;;5055689;28;20263;-74
2021/10/26 10:19:37;;;;;;;11.23;10.02;;;14.70;99.90;;;;;;5055468;28;20208;-74
2021/10/26 10:22:07;;;;;;;12.30;9.63;;;14.70;99.90;;;;;;5055264;28;20292;-73
2021/10/26 10:24:40;;;;;;;8.75;5.90;;;14.80;99.90;;;;;;5055179;28;20224;-74
2021/10/26 10:27:08;;;;;;;5.40;3.70;;;15.00;99.90;;;;;;5055293;28;20537;-74
2021/10/26 10:29:38;;;;;;;2.40;2.20;;;15.10;99.90;;;;;;5054941;28;20292;-73
2021/10/26 10:32:06;;;;;;;5.10;2.20;;;15.20;99.90;;;;;;5054687;28;20279;-73
2021/10/26 10:34:35;;;;;;;4.25;2.50;;;15.20;99.90;;;;;;5054929;28;20210;-74
2021/10/26 10:37:02;;;;;;;2.60;2.40;;;15.30;99.90;;;;;;5054828;28;20679;-74
2021/10/26 10:39:33;;;;;;;4.47;3.15;;;15.40;99.90;;;;;;5054707;28;20703;-74
2021/10/26 10:42:22;;;;;;;3.80;2.35;;;15.50;99.90;;;;;;5054679;28;20190;-73
2021/10/26 10:44:49;;;;;;;2.67;2.47;;;15.80;99.90;;;;;;5054663;28;20245;-74
2021/10/26 10:47:33;;;;;;;2.97;2.75;;;15.90;99.90;;;;;;5054658;28;20289;-73
2021/10/26 10:50:00;;;;;;;2.40;2.20;;;15.90;99.90;;;;;;5054454;28;20230;-73
2021/10/26 10:52:33;;;;;;;3.22;2.88;;;15.70;99.90;;;;;;5054053;28;20226;-73
2021/10/26 10:55:01;;;;;;;3.42;2.63;;;15.80;99.90;;;;;;5054487;28;20247;-74
2021/10/26 10:57:34;;;;;;;3.20;2.35;;;16.00;99.90;;;;;;5054502;28;20213;-73
2021/10/26 11:00:04;;;;;;;3.00;2.70;;;16.20;99.90;;;;;;5054435;28;20229;-74
2021/10/26 11:02:36;;;;;;;4.00;2.90;;;16.00;99.90;;;;;;5054590;28;20195;-73
2021/10/26 11:05:05;;;;;;;2.60;2.40;;;16.10;99.90;;;;;;5054475;28;20213;-74
2021/10/26 11:07:51;;;;;;;3.90;2.72;;;15.80;99.90;;;;;;5054701;28;20203;-74
2021/10/26 11:10:20;;;;;;;3.95;2.80;;;15.90;99.90;;;;;;5054395;28;20242;-74
2021/10/26 11:12:51;;;;;;;3.65;2.83;;;15.70;99.90;;;;;;5054375;28;20317;-73
2021/10/26 11:15:42;;;;;;;3.15;2.85;;;15.50;99.90;;;;;;5054477;28;20627;-74
2021/10/26 11:18:09;;;;;;;3.28;2.95;;;15.70;99.90;;;;;;5054311;28;20214;-74
2021/10/26 11:20:46;;;;;;;3.10;2.70;;;15.60;99.90;;;;;;5054053;28;20317;-74
2021/10/26 11:23:33;;;;;;;3.83;2.28;;;15.40;99.90;;;;;;5053899;28;20224;-74
2021/10/26 11:26:07;;;;;;;2.78;2.38;;;15.30;99.90;;;;;;5053869;28;20210;-74
2021/10/26 11:28:49;;;;;;;2.88;2.55;;;15.30;99.90;;;;;;5053963;28;20205;-74
2021/10/26 11:31:23;;;;;;;4.40;3.00;;;15.40;99.90;;;;;;5053835;28;20235;-73
2021/10/26 11:34:08;;;;;;;4.18;2.75;;;15.30;99.90;;;;;;5053936;28;20694;-74
2021/10/26 11:36:37;;;;;;;3.10;2.38;;;15.30;99.90;;;;;;5053756;28;20210;-73
2021/10/26 11:39:14;;;;;;;5.93;2.80;;;15.30;99.90;;;;;;5053793;28;20263;-74
2021/10/26 11:41:43;;;;;;;2.40;2.20;;;15.40;99.90;;;;;;5053561;28;20322;-73
2021/10/26 11:44:14;;;;;;;3.42;2.65;;;15.50;99.90;;;;;;5053695;28;20205;-74
2021/10/26 11:46:43;;;;;;;3.08;2.35;;;15.50;99.90;;;;;;5053665;28;20212;-74
2021/10/26 11:49:18;;;;;;;3.35;2.85;;;15.60;99.90;;;;;;5053519;28;20302;-74
2021/10/26 11:51:48;;;;;;;2.60;2.40;;;15.60;99.90;;;;;;5053269;28;20660;-73
2021/10/26 11:54:17;;;;;;;2.38;2.17;;;15.50;99.90;;;;;;5053502;28;20227;-74
2021/10/26 11:56:46;;;;;;;2.78;2.40;;;15.60;99.90;;;;;;5053644;28;20297;-74
2021/10/26 11:59:16;;;;;;;3.95;2.80;;;15.50;99.90;;;;;;5053654;28;20256;-74
2021/10/26 12:01:54;;;;;;;3.50;2.78;;;15.40;99.90;;;;;;5053317;28;20236;-73
2021/10/26 12:04:29;;;;;;;4.03;2.45;;;15.40;99.90;;;;;;5053490;28;20264;-74
2021/10/26 12:06:58;;;;;;;3.10;2.47;;;15.50;99.90;;;;;;5053491;28;20209;-74
2021/10/26 12:09:25;;;;;;;2.78;2.20;;;15.60;99.90;;;;;;5053280;28;20219;-74
2021/10/26 12:11:54;;;;;;;2.30;2.10;;;15.60;99.90;;;;;;5053197;28;20206;-74
2021/10/26 12:14:31;;;;;;;2.70;2.50;;;15.50;99.90;;;;;;5053245;28;20222;-74
2021/10/26 12:17:22;;;;;;;2.67;2.08;;;15.50;99.90;;;;;;5055295;28;20668;-74
2021/10/26 12:19:52;;;;;;;3.58;2.33;;;15.60;99.90;;;;;;5057444;28;20312;-74
2021/10/26 12:22:24;;;;;;;2.97;2.47;;;15.40;99.90;;;;;;5057224;28;20205;-73
2021/10/26 12:24:55;;;;;;;2.63;2.30;;;15.40;99.90;;;;;;5057317;28;20626;-74
2021/10/26 12:27:36;;;;;;;3.40;2.90;;;15.40;99.90;;;;;;5057225;28;20209;-74
2021/10/26 12:30:25;;;;;;;3.45;2.35;;;15.40;99.90;;;;;;5056913;28;20317;-74
2021/10/26 12:32:56;;;;;;;3.40;2.92;;;15.50;99.90;;;;;;5057364;28;20258;-74
2021/10/26 12:35:23;;;;;;;2.60;2.20;;;15.50;99.90;;;;;;5057150;28;20294;-74
2021/10/26 12:37:51;;;;;;;3.03;2.25;;;15.60;99.90;;;;;;5056909;28;20297;-74
2021/10/26 12:40:21;;;;;;;11.98;6.13;;;15.70;99.90;;;;;;5056940;28;20237;-74
2021/10/26 12:42:57;;;;;;;4.03;3.15;;;15.80;99.90;;;;;;5057017;28;20206;-73
2021/10/26 12:45:33;;;;;;;5.60;2.35;;;15.80;99.90;;;;;;5056856;28;20293;-74
2021/10/26 12:48:03;;;;;;;3.80;2.50;;;15.90;99.90;;;;;;5056697;28;20699;-73
2021/10/26 12:50:43;;;;;;;2.20;2.00;;;15.80;99.90;;;;;;5056774;28;20231;-74
2021/10/26 12:53:33;;;;;;;5.25;2.50;;;15.90;99.90;;;;;;5056525;28;20229;-73
2021/10/26 12:56:00;;;;;;;3.65;2.83;;;16.00;99.90;;;;;;5056745;28;20255;-73
2021/10/26 12:58:42;;;;;;;2.90;2.70;;;16.00;99.90;;;;;;5056638;28;20207;-74